Bluenose II — CYJZ — position and weather

sailwx.info

Track history (hours):
 
Tides and Currents Weather Stations Pressure Air Temp Water Temp Dewpoint Dewpoint Depression Visibility Wind Speed Wind Dir Waves Ship Positions

Bluenose II (Canada)

Ship's website: http://www.schoonerbluenose2.ca/

Last reported at 2017-Jun-22 21:03 UTC. Time now 2017-Nov-24 20:51 UTC.
Position N 42°32' W 069°59'.
Warning: this ship's position is months out of date.

Length 55 m; draft 5 m.

Type: Sailing vessel. MMSI: 316245000.

Date/timePositionNaut miles runAvg speedWind from/ knotsBaromVisibWave heightAir tempDewpointWater temp
2017-Jun-22 21:03N 42°32' W 069°59'1 8.2
2017-Jun-22 20:59N 42°32' W 069°60'3 5.5
2017-Jun-22 20:30N 42°32' W 070°04'4 6.3
2017-Jun-22 19:52N 42°31' W 070°09'2 6.7
2017-Jun-22 19:30N 42°30' W 070°12'3 6.7
2017-Jun-22 19:00N 42°29' W 070°17'3 6.9
2017-Jun-22 18:30N 42°29' W 070°21'4 7.1
2017-Jun-22 18:00N 42°28' W 070°26'4 7.1
2017-Jun-22 17:30N 42°27' W 070°30'4 7.1
2017-Jun-22 17:00N 42°26' W 070°35'4 7.0
2017-Jun-22 16:30N 42°25' W 070°40'4 7.3
2017-Jun-22 16:00N 42°24' W 070°44'4 7.3
2017-Jun-22 15:30N 42°24' W 070°49'3 6.2
2017-Jun-22 15:00N 42°22' W 070°53'3 6.0
2017-Jun-22 14:30N 42°21' W 070°56'5 4.7
2017-Jun-22 13:30N 42°21' W 071°03'0 0.0
2017-Jun-22 13:00N 42°21' W 071°03'0 0.0
2017-Jun-22 12:27N 42°21' W 071°03'0 0.0
2017-Jun-22 12:00N 42°21' W 071°03'0 0.0
2017-Jun-22 11:30N 42°21' W 071°03'0 0.0
2017-Jun-22 11:00N 42°21' W 071°03'0 0.0
2017-Jun-22 10:30N 42°21' W 071°03'0 0.0
2017-Jun-22 10:00N 42°21' W 071°03'0 0.0
2017-Jun-22 09:30N 42°21' W 071°03'0 0.0
2017-Jun-22 09:00N 42°21' W 071°03'0 0.0
2017-Jun-22 08:30N 42°21' W 071°03'0 0.0
2017-Jun-22 08:00N 42°21' W 071°03'0 0.0
2017-Jun-22 07:30N 42°21' W 071°03'0 0.0
2017-Jun-22 07:00N 42°21' W 071°03'0 0.0
2017-Jun-22 06:30N 42°21' W 071°03'0 0.0
2017-Jun-22 06:00N 42°21' W 071°03'0 0.0
2017-Jun-22 05:30N 42°21' W 071°03'0 0.0
2017-Jun-22 05:00N 42°21' W 071°03'0 0.0
2017-Jun-22 04:30N 42°21' W 071°03'0 0.0
2017-Jun-22 04:00N 42°21' W 071°03'0 0.0
2017-Jun-22 03:30N 42°21' W 071°03'0 0.0
2017-Jun-22 03:00N 42°21' W 071°03'0 0.0
2017-Jun-22 02:30N 42°21' W 071°03'0 0.0
2017-Jun-22 01:57N 42°21' W 071°03'0 0.0
2017-Jun-22 01:30N 42°21' W 071°03'0 0.0
2017-Jun-22 01:00N 42°21' W 071°03'0 0.0
2017-Jun-22 00:30N 42°21' W 071°03'0 0.0
2017-Jun-21 23:57N 42°21' W 071°03'0 0.0
2017-Jun-21 23:27N 42°21' W 071°03'0 0.0
2017-Jun-21 23:00N 42°21' W 071°03'0 0.0
2017-Jun-21 22:27N 42°21' W 071°03'0 0.0
2017-Jun-21 22:00N 42°21' W 071°03'0 0.0
2017-Jun-21 21:30N 42°21' W 071°03'0 0.0
2017-Jun-21 21:00N 42°21' W 071°03'0 0.0
2017-Jun-21 20:30N 42°21' W 071°03'0 0.0
2017-Jun-21 20:00N 42°21' W 071°03'0 0.0
2017-Jun-21 19:30N 42°21' W 071°03'0 0.0
2017-Jun-21 19:00N 42°21' W 071°03'0 0.0
2017-Jun-21 18:30N 42°21' W 071°03'0 0.0
2017-Jun-21 18:00N 42°21' W 071°03'0 0.0
2017-Jun-21 17:30N 42°21' W 071°03'0 0.0
2017-Jun-21 17:00N 42°21' W 071°03'0 0.0
2017-Jun-21 16:30N 42°21' W 071°03'0 0.0
2017-Jun-21 16:00N 42°21' W 071°03'0 0.0
2017-Jun-21 15:30N 42°21' W 071°03'0 0.0
2017-Jun-21 15:00N 42°21' W 071°03'0 0.0
2017-Jun-21 14:30N 42°21' W 071°03'0 0.0
2017-Jun-21 13:30N 42°21' W 071°03'0 0.0
2017-Jun-21 12:57N 42°21' W 071°03'0 0.0
2017-Jun-21 12:30N 42°21' W 071°03'0 0.0
2017-Jun-21 12:00N 42°21' W 071°03'0 0.0
2017-Jun-21 11:30N 42°21' W 071°03'0 0.0
2017-Jun-21 11:00N 42°21' W 071°03'0 0.0
2017-Jun-21 10:30N 42°21' W 071°03'0 0.0
2017-Jun-21 10:00N 42°21' W 071°03'0 0.0
2017-Jun-21 09:30N 42°21' W 071°03'0 0.0
2017-Jun-21 09:00N 42°21' W 071°03'0 0.0
2017-Jun-21 08:30N 42°21' W 071°03'0 0.0
2017-Jun-21 08:00N 42°21' W 071°03'0 0.0
2017-Jun-21 07:30N 42°21' W 071°03'0 0.0
2017-Jun-21 07:00N 42°21' W 071°03'0 0.0
2017-Jun-21 06:30N 42°21' W 071°03'0 0.0
2017-Jun-21 05:59N 42°21' W 071°03'0 0.0
2017-Jun-21 05:30N 42°21' W 071°03'0 0.0
2017-Jun-21 04:59N 42°21' W 071°03'0 0.0
2017-Jun-21 04:27N 42°21' W 071°03'0 0.0
2017-Jun-21 04:00N 42°21' W 071°03'0 0.0
2017-Jun-21 03:30N 42°21' W 071°03'0 0.0
2017-Jun-21 03:00N 42°21' W 071°03'0 0.0
2017-Jun-21 02:30N 42°21' W 071°03'0 0.0
2017-Jun-21 02:00N 42°21' W 071°03'0 0.0
2017-Jun-21 01:30N 42°21' W 071°03'0 0.0
2017-Jun-21 01:00N 42°21' W 071°03'0 0.0
2017-Jun-21 00:29N 42°21' W 071°03'0 0.0
2017-Jun-20 23:59N 42°21' W 071°03'0 0.0
2017-Jun-20 23:30N 42°21' W 071°03'0 0.0
2017-Jun-20 22:57N 42°21' W 071°03'0 0.0
2017-Jun-20 22:30N 42°21' W 071°03'0 0.0
2017-Jun-20 21:59N 42°21' W 071°03'0 0.0
2017-Jun-20 21:30N 42°21' W 071°03'  
Track history (hours):
 
Tides and Currents Weather Stations Pressure Air Temp Water Temp Dewpoint Dewpoint Depression Visibility Wind Speed Wind Dir Waves Ship Positions

Bluenose II (Canada)

Ship's website: http://www.schoonerbluenose2.ca/

Last reported at 2017-Jun-22 21:03 UTC. Time now 2017-Nov-24 20:51 UTC.
Position N 42°32' W 069°59'.
Warning: this ship's position is months out of date.

Length 55 m; draft 5 m.

Type: Sailing vessel. MMSI: 316245000.

Date/timePositionNaut miles runAvg speedWind from/ knotsBaromVisibWave heightAir tempDewpointWater temp
2017-Jun-22 21:03N 42°32' W 069°59'1 8.2
2017-Jun-22 20:59N 42°32' W 069°60'3 5.5
2017-Jun-22 20:30N 42°32' W 070°04'4 6.3
2017-Jun-22 19:52N 42°31' W 070°09'2 6.7
2017-Jun-22 19:30N 42°30' W 070°12'3 6.7
2017-Jun-22 19:00N 42°29' W 070°17'3 6.9
2017-Jun-22 18:30N 42°29' W 070°21'4 7.1
2017-Jun-22 18:00N 42°28' W 070°26'4 7.1
2017-Jun-22 17:30N 42°27' W 070°30'4 7.1
2017-Jun-22 17:00N 42°26' W 070°35'4 7.0
2017-Jun-22 16:30N 42°25' W 070°40'4 7.3
2017-Jun-22 16:00N 42°24' W 070°44'4 7.3
2017-Jun-22 15:30N 42°24' W 070°49'3 6.2
2017-Jun-22 15:00N 42°22' W 070°53'3 6.0
2017-Jun-22 14:30N 42°21' W 070°56'5 4.7
2017-Jun-22 13:30N 42°21' W 071°03'0 0.0
2017-Jun-22 13:00N 42°21' W 071°03'0 0.0
2017-Jun-22 12:27N 42°21' W 071°03'0 0.0
2017-Jun-22 12:00N 42°21' W 071°03'0 0.0
2017-Jun-22 11:30N 42°21' W 071°03'0 0.0
2017-Jun-22 11:00N 42°21' W 071°03'0 0.0
2017-Jun-22 10:30N 42°21' W 071°03'0 0.0
2017-Jun-22 10:00N 42°21' W 071°03'0 0.0
2017-Jun-22 09:30N 42°21' W 071°03'0 0.0
2017-Jun-22 09:00N 42°21' W 071°03'0 0.0
2017-Jun-22 08:30N 42°21' W 071°03'0 0.0
2017-Jun-22 08:00N 42°21' W 071°03'0 0.0
2017-Jun-22 07:30N 42°21' W 071°03'0 0.0
2017-Jun-22 07:00N 42°21' W 071°03'0 0.0
2017-Jun-22 06:30N 42°21' W 071°03'0 0.0
2017-Jun-22 06:00N 42°21' W 071°03'0 0.0
2017-Jun-22 05:30N 42°21' W 071°03'0 0.0
2017-Jun-22 05:00N 42°21' W 071°03'0 0.0
2017-Jun-22 04:30N 42°21' W 071°03'0 0.0
2017-Jun-22 04:00N 42°21' W 071°03'0 0.0
2017-Jun-22 03:30N 42°21' W 071°03'0 0.0
2017-Jun-22 03:00N 42°21' W 071°03'0 0.0
2017-Jun-22 02:30N 42°21' W 071°03'0 0.0
2017-Jun-22 01:57N 42°21' W 071°03'0 0.0
2017-Jun-22 01:30N 42°21' W 071°03'0 0.0
2017-Jun-22 01:00N 42°21' W 071°03'0 0.0
2017-Jun-22 00:30N 42°21' W 071°03'0 0.0
2017-Jun-21 23:57N 42°21' W 071°03'0 0.0
2017-Jun-21 23:27N 42°21' W 071°03'0 0.0
2017-Jun-21 23:00N 42°21' W 071°03'0 0.0
2017-Jun-21 22:27N 42°21' W 071°03'0 0.0
2017-Jun-21 22:00N 42°21' W 071°03'0 0.0
2017-Jun-21 21:30N 42°21' W 071°03'0 0.0
2017-Jun-21 21:00N 42°21' W 071°03'0 0.0
2017-Jun-21 20:30N 42°21' W 071°03'0 0.0
2017-Jun-21 20:00N 42°21' W 071°03'0 0.0
2017-Jun-21 19:30N 42°21' W 071°03'0 0.0
2017-Jun-21 19:00N 42°21' W 071°03'0 0.0
2017-Jun-21 18:30N 42°21' W 071°03'0 0.0
2017-Jun-21 18:00N 42°21' W 071°03'0 0.0
2017-Jun-21 17:30N 42°21' W 071°03'0 0.0
2017-Jun-21 17:00N 42°21' W 071°03'0 0.0
2017-Jun-21 16:30N 42°21' W 071°03'0 0.0
2017-Jun-21 16:00N 42°21' W 071°03'0 0.0
2017-Jun-21 15:30N 42°21' W 071°03'0 0.0
2017-Jun-21 15:00N 42°21' W 071°03'0 0.0
2017-Jun-21 14:30N 42°21' W 071°03'0 0.0
2017-Jun-21 13:30N 42°21' W 071°03'0 0.0
2017-Jun-21 12:57N 42°21' W 071°03'0 0.0
2017-Jun-21 12:30N 42°21' W 071°03'0 0.0
2017-Jun-21 12:00N 42°21' W 071°03'0 0.0
2017-Jun-21 11:30N 42°21' W 071°03'0 0.0
2017-Jun-21 11:00N 42°21' W 071°03'0 0.0
2017-Jun-21 10:30N 42°21' W 071°03'0 0.0
2017-Jun-21 10:00N 42°21' W 071°03'0 0.0
2017-Jun-21 09:30N 42°21' W 071°03'0 0.0
2017-Jun-21 09:00N 42°21' W 071°03'0 0.0
2017-Jun-21 08:30N 42°21' W 071°03'0 0.0
2017-Jun-21 08:00N 42°21' W 071°03'0 0.0
2017-Jun-21 07:30N 42°21' W 071°03'0 0.0
2017-Jun-21 07:00N 42°21' W 071°03'0 0.0
2017-Jun-21 06:30N 42°21' W 071°03'0 0.0
2017-Jun-21 05:59N 42°21' W 071°03'0 0.0
2017-Jun-21 05:30N 42°21' W 071°03'0 0.0
2017-Jun-21 04:59N 42°21' W 071°03'0 0.0
2017-Jun-21 04:27N 42°21' W 071°03'0 0.0
2017-Jun-21 04:00N 42°21' W 071°03'0 0.0
2017-Jun-21 03:30N 42°21' W 071°03'0 0.0
2017-Jun-21 03:00N 42°21' W 071°03'0 0.0
2017-Jun-21 02:30N 42°21' W 071°03'0 0.0
2017-Jun-21 02:00N 42°21' W 071°03'0 0.0
2017-Jun-21 01:30N 42°21' W 071°03'0 0.0
2017-Jun-21 01:00N 42°21' W 071°03'0 0.0
2017-Jun-21 00:29N 42°21' W 071°03'0 0.0
2017-Jun-20 23:59N 42°21' W 071°03'0 0.0
2017-Jun-20 23:30N 42°21' W 071°03'0 0.0
2017-Jun-20 22:57N 42°21' W 071°03'0 0.0
2017-Jun-20 22:30N 42°21' W 071°03'0 0.0
2017-Jun-20 21:59N 42°21' W 071°03'0 0.0
2017-Jun-20 21:30N 42°21' W 071°03'  

Dump ship's entire track history